createdAt,value
2017-10-07T00:01:22.662Z,24.35
2017-10-07T00:03:52.979Z,24.34
2017-10-07T00:06:20.451Z,24.33
2017-10-07T00:08:47.902Z,24.33
2017-10-07T00:11:15.305Z,24.34
2017-10-07T00:13:42.722Z,24.34
2017-10-07T00:16:10.189Z,24.33
2017-10-07T00:18:37.594Z,24.33
2017-10-07T00:21:05.022Z,24.32
2017-10-07T00:23:32.561Z,24.32
2017-10-07T00:25:59.972Z,24.31
2017-10-07T00:28:27.384Z,24.31
2017-10-07T00:30:55.436Z,24.30
2017-10-07T00:33:22.843Z,24.31
2017-10-07T00:35:50.283Z,24.30
2017-10-07T00:38:18.306Z,24.29
2017-10-07T00:40:45.727Z,24.31
2017-10-07T00:43:13.137Z,24.30
2017-10-07T00:45:40.709Z,24.31
2017-10-07T00:48:08.135Z,24.30
2017-10-07T00:50:35.552Z,24.30
2017-10-07T00:53:03.383Z,24.30
2017-10-07T00:55:30.786Z,24.31
2017-10-07T00:57:58.195Z,24.30
2017-10-07T01:00:25.658Z,24.30
2017-10-07T01:02:53.103Z,24.31
2017-10-07T01:05:20.544Z,24.30
2017-10-07T01:07:48.009Z,24.31
2017-10-07T01:10:15.435Z,24.30
2017-10-07T01:12:43.015Z,24.29
2017-10-07T01:15:10.674Z,24.29
2017-10-07T01:17:38.098Z,24.29
2017-10-07T01:20:05.933Z,24.29
2017-10-07T01:22:33.393Z,24.28
2017-10-07T01:25:00.801Z,24.30
2017-10-07T01:27:28.262Z,24.28
2017-10-07T01:29:56.305Z,24.29
2017-10-07T01:32:23.757Z,24.29
2017-10-07T01:34:51.162Z,24.28
2017-10-07T01:37:19.561Z,24.29
2017-10-07T01:39:46.973Z,24.30
2017-10-07T01:42:14.506Z,24.30
2017-10-07T01:44:41.957Z,24.28
2017-10-07T01:47:09.375Z,24.29
2017-10-07T01:49:36.784Z,24.28
2017-10-07T01:52:04.248Z,24.29
2017-10-07T01:54:31.663Z,24.27
2017-10-07T01:56:59.081Z,24.29
2017-10-07T01:59:26.642Z,24.27
2017-10-07T02:01:54.074Z,24.28
2017-10-07T02:04:21.478Z,24.28
2017-10-07T02:06:48.949Z,24.28
2017-10-07T02:09:16.372Z,24.28
2017-10-07T02:11:43.812Z,24.28
2017-10-07T02:14:11.284Z,24.29
2017-10-07T02:16:38.725Z,24.28
2017-10-07T02:19:06.144Z,24.28
2017-10-07T02:21:33.638Z,24.28
2017-10-07T02:24:01.103Z,24.29
2017-10-07T02:26:28.587Z,24.29
2017-10-07T02:28:56.074Z,24.28
2017-10-07T02:31:23.490Z,24.28
2017-10-07T02:33:50.911Z,24.29
2017-10-07T02:36:18.395Z,24.28
2017-10-07T02:38:45.803Z,24.29
2017-10-07T02:41:13.226Z,24.28
2017-10-07T02:43:40.807Z,24.26
2017-10-07T02:46:08.219Z,24.28
2017-10-07T02:48:35.631Z,24.28
2017-10-07T02:51:03.092Z,24.28
2017-10-07T02:53:30.578Z,24.28
2017-10-07T02:55:58.142Z,24.29
2017-10-07T02:58:25.598Z,24.28
2017-10-07T03:00:53.693Z,24.28
2017-10-07T03:03:21.098Z,24.28
2017-10-07T03:05:48.537Z,24.28
2017-10-07T03:08:15.946Z,24.27
2017-10-07T03:10:43.362Z,24.27
2017-10-07T03:13:10.960Z,24.27
2017-10-07T03:15:38.380Z,24.26
2017-10-07T03:18:05.791Z,24.26
2017-10-07T03:20:33.427Z,24.27
2017-10-07T03:23:00.885Z,24.26
2017-10-07T03:25:28.363Z,24.28
2017-10-07T03:27:56.223Z,24.27
2017-10-07T03:30:23.692Z,24.27
2017-10-07T03:32:51.097Z,24.26
2017-10-07T03:35:18.569Z,24.28
2017-10-07T03:37:45.986Z,24.28
2017-10-07T03:40:13.408Z,24.27
2017-10-07T03:42:40.975Z,24.26
2017-10-07T03:45:08.424Z,24.26
2017-10-07T03:47:35.834Z,24.26
2017-10-07T03:50:03.428Z,24.26
2017-10-07T03:52:30.847Z,24.25
2017-10-07T03:54:58.325Z,24.26
2017-10-07T03:57:26.185Z,24.26
2017-10-07T03:59:53.598Z,24.26
2017-10-07T04:02:21.048Z,24.26
2017-10-07T04:04:48.477Z,24.27
2017-10-07T04:07:15.925Z,24.26
2017-10-07T04:09:43.386Z,24.26
2017-10-07T04:12:11.133Z,24.26
2017-10-07T04:14:38.537Z,24.25
2017-10-07T04:17:05.954Z,24.25
2017-10-07T04:19:33.839Z,24.26
2017-10-07T04:22:01.258Z,24.25
2017-10-07T04:24:28.671Z,24.26
2017-10-07T04:26:56.119Z,24.27
2017-10-07T04:29:23.521Z,24.27
2017-10-07T04:31:51.021Z,24.26
2017-10-07T04:34:18.523Z,24.27
2017-10-07T04:36:45.930Z,24.25
2017-10-07T04:39:13.342Z,24.27
2017-10-07T04:41:40.802Z,24.26
2017-10-07T04:44:08.292Z,24.26
2017-10-07T04:46:35.743Z,24.26
2017-10-07T04:49:03.204Z,24.25
2017-10-07T04:51:30.687Z,24.25
2017-10-07T04:53:58.099Z,24.26
2017-10-07T04:56:26.174Z,24.27
2017-10-07T04:58:53.593Z,24.27
2017-10-07T05:01:21.006Z,24.26
2017-10-07T05:03:48.462Z,24.26
2017-10-07T05:06:15.900Z,24.28
2017-10-07T05:08:43.315Z,24.27
2017-10-07T05:11:10.788Z,24.27
2017-10-07T05:13:38.192Z,24.27
2017-10-07T05:16:06.224Z,24.26
2017-10-07T05:18:33.799Z,24.27
2017-10-07T05:21:01.218Z,24.27
2017-10-07T05:23:28.631Z,24.26
2017-10-07T05:25:56.586Z,24.26
2017-10-07T05:28:23.990Z,24.26
2017-10-07T05:30:51.426Z,24.25
2017-10-07T05:33:18.869Z,24.26
2017-10-07T05:35:46.287Z,24.24
2017-10-07T05:38:13.707Z,24.26
2017-10-07T05:40:41.274Z,24.24
2017-10-07T05:43:08.685Z,24.25
2017-10-07T05:45:36.108Z,24.25
2017-10-07T05:48:03.890Z,24.25
2017-10-07T05:50:31.299Z,24.24
2017-10-07T05:52:58.735Z,24.23
2017-10-07T05:55:26.568Z,24.26
2017-10-07T05:57:53.980Z,24.24
2017-10-07T06:00:21.407Z,24.25
2017-10-07T06:02:49.041Z,24.25
2017-10-07T06:05:16.458Z,24.25
2017-10-07T06:07:43.895Z,24.25
2017-10-07T06:10:11.363Z,24.25
2017-10-07T06:12:38.785Z,24.25
2017-10-07T06:15:06.292Z,24.25
2017-10-07T06:17:33.855Z,24.25
2017-10-07T06:20:01.270Z,24.26
2017-10-07T06:22:28.684Z,24.23
2017-10-07T06:24:56.216Z,24.23
2017-10-07T06:27:23.650Z,24.24
2017-10-07T06:29:51.074Z,24.25
2017-10-07T06:32:18.605Z,24.24
2017-10-07T06:34:46.027Z,24.25
2017-10-07T06:37:13.443Z,24.25
2017-10-07T06:39:40.890Z,24.24
2017-10-07T06:42:08.426Z,24.24
2017-10-07T06:44:35.838Z,24.22
2017-10-07T06:47:03.285Z,24.22
2017-10-07T06:49:30.703Z,24.24
2017-10-07T06:51:58.118Z,24.26
2017-10-07T06:54:25.591Z,24.26
2017-10-07T06:56:53.015Z,24.27
2017-10-07T06:59:20.420Z,24.26
2017-10-07T07:01:47.886Z,24.28
2017-10-07T07:04:15.309Z,24.28
2017-10-07T07:06:42.719Z,24.26
2017-10-07T07:09:10.594Z,24.26
2017-10-07T07:11:38.055Z,24.28
2017-10-07T07:14:05.459Z,24.28
2017-10-07T07:16:33.054Z,24.28
2017-10-07T07:19:00.467Z,24.28
2017-10-07T07:21:27.893Z,24.29
2017-10-07T07:23:55.339Z,24.29
2017-10-07T07:26:22.761Z,24.29
2017-10-07T07:28:50.170Z,24.29
2017-10-07T07:31:17.794Z,24.28
2017-10-07T07:33:45.286Z,24.27
2017-10-07T07:36:13.494Z,24.28
2017-10-07T07:38:41.022Z,24.28
2017-10-07T07:41:08.743Z,24.29
2017-10-07T07:43:36.169Z,24.31
2017-10-07T07:46:05.451Z,24.31
2017-10-07T07:48:34.360Z,24.32
2017-10-07T07:51:01.871Z,24.32
2017-10-07T07:53:29.395Z,24.30
2017-10-07T07:55:57.272Z,24.32
2017-10-07T07:58:24.855Z,24.34
2017-10-07T08:00:52.273Z,24.33
2017-10-07T08:03:20.066Z,24.34
2017-10-07T08:05:47.586Z,24.31
2017-10-07T08:08:15.004Z,24.34
2017-10-07T08:10:42.463Z,24.36
2017-10-07T08:13:09.955Z,24.37
2017-10-07T08:15:37.364Z,24.37
2017-10-07T08:18:04.840Z,24.38
2017-10-07T08:20:32.254Z,24.38
2017-10-07T08:23:00.355Z,24.38
2017-10-07T08:25:27.814Z,24.39
2017-10-07T08:27:55.246Z,24.40
2017-10-07T08:30:22.643Z,24.39
2017-10-07T08:32:50.551Z,24.39
2017-10-07T08:35:17.994Z,24.41
2017-10-07T08:37:45.409Z,24.41
2017-10-07T08:40:13.227Z,24.41
2017-10-07T08:42:40.645Z,24.41
2017-10-07T08:45:08.146Z,24.41
2017-10-07T08:47:35.622Z,24.36
2017-10-07T08:50:03.065Z,24.37
2017-10-07T08:52:30.505Z,24.42
2017-10-07T08:54:57.984Z,24.42
2017-10-07T08:57:25.429Z,24.41
2017-10-07T08:59:52.840Z,24.43
2017-10-07T09:02:20.319Z,24.41
2017-10-07T09:04:47.747Z,24.42
2017-10-07T09:07:15.197Z,24.44
2017-10-07T09:09:42.823Z,24.45
2017-10-07T09:12:10.466Z,24.45
2017-10-07T09:14:37.890Z,24.46
2017-10-07T09:17:05.343Z,24.46
2017-10-07T09:19:32.766Z,24.46
2017-10-07T09:22:00.195Z,24.45
2017-10-07T09:24:27.958Z,24.45
2017-10-07T09:26:55.366Z,24.49
2017-10-07T09:29:22.795Z,24.49
2017-10-07T09:31:51.676Z,24.52
2017-10-07T09:34:19.078Z,24.54
2017-10-07T09:36:46.495Z,24.55
2017-10-07T09:39:13.940Z,24.57
2017-10-07T09:41:41.351Z,24.56
2017-10-07T09:44:08.781Z,24.57
2017-10-07T09:46:36.600Z,24.54
2017-10-07T09:49:04.015Z,24.57
2017-10-07T09:51:31.438Z,24.63
2017-10-07T09:53:58.899Z,24.62
2017-10-07T09:56:26.479Z,24.58
2017-10-07T09:58:53.901Z,24.54
2017-10-07T10:01:21.354Z,24.48
2017-10-07T10:03:48.789Z,24.42
2017-10-07T10:06:16.206Z,24.40
2017-10-07T10:08:44.029Z,24.38
2017-10-07T10:11:11.443Z,24.34
2017-10-07T10:13:39.013Z,24.34
2017-10-07T10:16:06.499Z,24.41
2017-10-07T10:18:33.919Z,24.49
2017-10-07T10:21:01.325Z,24.53
2017-10-07T10:23:28.787Z,24.55
2017-10-07T10:25:56.257Z,24.55
2017-10-07T10:28:23.671Z,24.57
2017-10-07T10:30:51.472Z,24.53
2017-10-07T10:33:19.624Z,24.49
2017-10-07T10:35:47.067Z,24.53
2017-10-07T10:38:14.814Z,24.49
2017-10-07T10:40:42.232Z,24.48
2017-10-07T10:43:09.653Z,24.47
2017-10-07T10:45:37.521Z,24.45
2017-10-07T10:48:05.384Z,24.44
2017-10-07T10:50:32.811Z,24.43
2017-10-07T10:53:00.326Z,24.45
2017-10-07T10:55:27.787Z,24.41
2017-10-07T10:57:55.210Z,24.38
2017-10-07T11:00:22.665Z,24.41
2017-10-07T11:02:50.083Z,24.39
2017-10-07T11:05:17.685Z,24.40
2017-10-07T11:07:45.157Z,24.39
2017-10-07T11:10:12.553Z,24.35
2017-10-07T11:12:39.991Z,24.35
2017-10-07T11:15:07.831Z,24.42
2017-10-07T11:17:35.237Z,24.42
2017-10-07T11:20:02.667Z,24.44
2017-10-07T11:22:30.166Z,24.48
2017-10-07T11:24:57.715Z,24.46
2017-10-07T11:27:25.130Z,24.49
2017-10-07T11:29:52.971Z,24.50
2017-10-07T11:32:20.448Z,24.50
2017-10-07T11:34:47.851Z,24.52
2017-10-07T11:37:15.428Z,24.53
2017-10-07T11:39:42.847Z,24.54
2017-10-07T11:42:10.264Z,24.55
2017-10-07T11:44:37.739Z,24.51
2017-10-07T11:47:05.159Z,24.53
2017-10-07T11:49:32.567Z,24.56
2017-10-07T11:52:00.787Z,24.59
2017-10-07T11:54:28.207Z,24.57
2017-10-07T11:56:55.631Z,24.57
2017-10-07T11:59:23.875Z,24.58
2017-10-07T12:01:51.298Z,24.61
2017-10-07T12:04:18.908Z,24.60
2017-10-07T12:06:46.363Z,24.60
2017-10-07T12:09:13.778Z,24.58
2017-10-07T12:11:41.194Z,24.56
2017-10-07T12:14:08.650Z,24.58
2017-10-07T12:16:36.058Z,24.60
2017-10-07T12:19:03.475Z,24.60
2017-10-07T12:21:30.958Z,24.62
2017-10-07T12:23:58.371Z,24.61
2017-10-07T12:26:25.793Z,24.64
2017-10-07T12:28:53.361Z,24.62
2017-10-07T12:31:20.773Z,24.63
2017-10-07T12:33:48.203Z,24.63
2017-10-07T12:36:15.663Z,24.64
2017-10-07T12:38:43.118Z,24.64
2017-10-07T12:41:10.533Z,24.65
2017-10-07T12:43:37.983Z,24.65
2017-10-07T12:46:05.427Z,24.66
2017-10-07T12:48:32.872Z,24.66
2017-10-07T12:51:00.665Z,24.67
2017-10-07T12:53:28.182Z,24.69
2017-10-07T12:55:55.591Z,24.71
2017-10-07T12:58:23.337Z,24.72
2017-10-07T13:00:50.743Z,24.72
2017-10-07T13:03:18.247Z,24.74
2017-10-07T13:05:45.718Z,24.76
2017-10-07T13:08:13.139Z,24.81
2017-10-07T13:10:40.554Z,24.91
2017-10-07T13:13:07.984Z,24.93
2017-10-07T13:15:35.405Z,24.89
2017-10-07T13:18:02.834Z,24.82
2017-10-07T13:20:30.281Z,24.78
2017-10-07T13:22:57.704Z,24.80
2017-10-07T13:25:25.128Z,24.78
2017-10-07T13:27:52.602Z,24.79
2017-10-07T13:30:20.202Z,24.76
2017-10-07T13:32:47.629Z,24.75
2017-10-07T13:35:15.077Z,24.72
2017-10-07T13:37:42.499Z,24.74
2017-10-07T13:40:09.919Z,24.76
2017-10-07T13:42:37.539Z,24.78
2017-10-07T13:45:05.034Z,24.80
2017-10-07T13:47:32.444Z,24.80
2017-10-07T13:50:00.044Z,24.78
2017-10-07T13:52:27.463Z,24.78
2017-10-07T13:54:54.922Z,24.76
2017-10-07T13:57:22.423Z,24.75
2017-10-07T13:59:49.846Z,24.75
2017-10-07T14:02:17.255Z,24.75
2017-10-07T14:04:44.716Z,24.74
2017-10-07T14:07:12.168Z,24.72
2017-10-07T14:09:39.578Z,24.72
2017-10-07T14:12:07.161Z,24.69
2017-10-07T14:14:34.639Z,24.71
2017-10-07T14:17:02.072Z,24.71
2017-10-07T14:19:30.042Z,24.72
2017-10-07T14:21:57.491Z,24.71
2017-10-07T14:24:24.913Z,24.69
2017-10-07T14:26:52.363Z,24.67
2017-10-07T14:29:19.861Z,24.66
2017-10-07T14:31:47.265Z,24.66
2017-10-07T14:34:15.068Z,24.69
2017-10-07T14:36:42.546Z,24.68
2017-10-07T14:39:09.960Z,24.67
2017-10-07T14:41:37.399Z,24.65
2017-10-07T14:44:05.189Z,24.65
2017-10-07T14:46:32.660Z,24.65
2017-10-07T14:49:00.236Z,24.66
2017-10-07T14:51:27.733Z,24.64
2017-10-07T14:53:55.158Z,24.62
2017-10-07T14:56:22.643Z,24.64
2017-10-07T14:58:50.110Z,24.65
2017-10-07T15:01:17.530Z,24.64
2017-10-07T15:03:45.016Z,24.63
2017-10-07T15:06:12.432Z,24.61
2017-10-07T15:08:39.961Z,24.62
2017-10-07T15:11:07.772Z,24.62
2017-10-07T15:13:35.182Z,24.64
2017-10-07T15:16:02.668Z,24.63
2017-10-07T15:18:30.099Z,24.61
2017-10-07T15:20:57.520Z,24.63
2017-10-07T15:23:24.935Z,24.60
2017-10-07T15:25:52.404Z,24.62
2017-10-07T15:28:20.043Z,24.59
2017-10-07T15:30:47.453Z,24.58
2017-10-07T15:33:15.274Z,24.56
2017-10-07T15:35:42.734Z,24.60
2017-10-07T15:38:10.142Z,24.60
2017-10-07T15:40:37.606Z,24.62
2017-10-07T15:43:05.037Z,24.61
2017-10-07T15:45:32.477Z,24.60
2017-10-07T15:48:00.328Z,24.61
2017-10-07T15:50:27.735Z,24.60
2017-10-07T15:52:55.163Z,24.60
2017-10-07T15:55:23.011Z,24.61
2017-10-07T15:57:50.484Z,24.60
2017-10-07T16:00:17.909Z,24.59
2017-10-07T16:02:45.416Z,24.58
2017-10-07T16:05:12.849Z,24.56
2017-10-07T16:07:41.763Z,24.58
2017-10-07T16:10:09.467Z,24.56
2017-10-07T16:12:36.932Z,24.54
2017-10-07T16:15:04.353Z,24.56
2017-10-07T16:17:32.487Z,24.55
2017-10-07T16:19:59.904Z,24.56
2017-10-07T16:22:27.318Z,24.55
2017-10-07T16:24:54.766Z,24.54
2017-10-07T16:27:22.291Z,24.55
2017-10-07T16:29:49.715Z,24.54
2017-10-07T16:32:17.194Z,24.55
2017-10-07T16:34:44.688Z,24.52
2017-10-07T16:37:12.103Z,24.53
2017-10-07T16:39:39.878Z,24.51
2017-10-07T16:42:07.287Z,24.52
2017-10-07T16:44:35.363Z,24.53
2017-10-07T16:47:02.891Z,24.53
2017-10-07T16:49:30.303Z,24.51
2017-10-07T16:51:57.721Z,24.51
2017-10-07T16:54:25.183Z,24.50
2017-10-07T16:56:53.603Z,24.51
2017-10-07T16:59:21.016Z,24.51
2017-10-07T17:01:49.144Z,24.52
2017-10-07T17:04:16.638Z,24.51
2017-10-07T17:06:44.097Z,24.51
2017-10-07T17:09:11.575Z,24.51
2017-10-07T17:11:39.189Z,24.50
2017-10-07T17:14:06.667Z,24.50
2017-10-07T17:16:34.524Z,24.49
2017-10-07T17:19:01.943Z,24.48
2017-10-07T17:21:29.351Z,24.49
2017-10-07T17:23:56.897Z,24.48
2017-10-07T17:26:24.428Z,24.48
2017-10-07T17:28:51.868Z,24.48
2017-10-07T17:31:19.963Z,24.47
2017-10-07T17:33:47.414Z,24.47
2017-10-07T17:36:14.878Z,24.48
2017-10-07T17:38:42.323Z,24.47
2017-10-07T17:41:09.728Z,24.46
2017-10-07T17:43:37.142Z,24.46
2017-10-07T17:46:04.918Z,24.47
2017-10-07T17:48:32.327Z,24.46
2017-10-07T17:50:59.817Z,24.47
2017-10-07T17:53:27.328Z,24.47
2017-10-07T17:55:54.742Z,24.47
2017-10-07T17:58:22.238Z,24.46
2017-10-07T18:00:49.944Z,24.47
2017-10-07T18:03:17.365Z,24.46
2017-10-07T18:05:44.864Z,24.46
2017-10-07T18:08:12.723Z,24.45
2017-10-07T18:10:40.143Z,24.44
2017-10-07T18:13:07.597Z,24.44
2017-10-07T18:15:35.062Z,24.44
2017-10-07T18:18:02.483Z,24.44
2017-10-07T18:20:29.908Z,24.45
2017-10-07T18:22:57.667Z,24.45
2017-10-07T18:25:25.082Z,24.42
2017-10-07T18:27:52.496Z,24.43
2017-10-07T18:30:20.254Z,24.43
2017-10-07T18:32:47.724Z,24.43
2017-10-07T18:35:15.177Z,24.43
2017-10-07T18:37:42.631Z,24.42
2017-10-07T18:40:10.037Z,24.41
2017-10-07T18:42:37.468Z,24.41
2017-10-07T18:45:04.906Z,24.39
2017-10-07T18:47:32.346Z,24.40
2017-10-07T18:49:59.781Z,24.40
2017-10-07T18:52:27.374Z,24.40
2017-10-07T18:54:54.786Z,24.40
2017-10-07T18:57:22.211Z,24.40
2017-10-07T18:59:49.680Z,24.39
2017-10-07T19:02:17.101Z,24.41
2017-10-07T19:04:44.530Z,24.41
2017-10-07T19:07:12.016Z,24.40
2017-10-07T19:09:39.440Z,24.38
2017-10-07T19:12:07.178Z,24.36
2017-10-07T19:14:34.969Z,24.37
2017-10-07T19:17:02.831Z,24.38
2017-10-07T19:19:30.292Z,24.37
2017-10-07T19:21:58.180Z,24.39
2017-10-07T19:24:25.628Z,24.37
2017-10-07T19:26:53.038Z,24.39
2017-10-07T19:29:20.872Z,24.37
2017-10-07T19:31:48.358Z,24.39
2017-10-07T19:34:16.160Z,24.37
2017-10-07T19:36:44.144Z,24.38
2017-10-07T19:39:11.792Z,24.38
2017-10-07T19:41:39.330Z,24.41
2017-10-07T19:44:06.994Z,24.44
2017-10-07T19:46:34.507Z,24.43
2017-10-07T19:49:02.178Z,24.45
2017-10-07T19:51:30.121Z,24.45
2017-10-07T19:53:57.531Z,24.44
2017-10-07T19:56:24.980Z,24.44
2017-10-07T19:58:52.439Z,24.45
2017-10-07T20:01:19.851Z,24.44
2017-10-07T20:03:47.283Z,24.43
2017-10-07T20:06:14.876Z,24.44
2017-10-07T20:08:42.352Z,24.46
2017-10-07T20:11:09.762Z,24.43
2017-10-07T20:13:37.316Z,24.43
2017-10-07T20:16:04.821Z,24.44
2017-10-07T20:18:32.264Z,24.44
2017-10-07T20:21:00.104Z,24.45
2017-10-07T20:23:27.519Z,24.44
2017-10-07T20:25:54.955Z,24.44
2017-10-07T20:28:22.413Z,24.45
2017-10-07T20:30:49.822Z,24.46
2017-10-07T20:33:18.151Z,24.45
2017-10-07T20:35:45.859Z,24.44
2017-10-07T20:38:13.278Z,24.44
2017-10-07T20:40:40.719Z,24.42
2017-10-07T20:43:08.164Z,24.44
2017-10-07T20:45:35.592Z,24.44
2017-10-07T20:48:03.055Z,24.44
2017-10-07T20:53:23.687Z,24.43
2017-10-07T20:55:51.126Z,24.45
2017-10-07T20:58:18.540Z,24.45
2017-10-07T21:00:46.119Z,24.44
2017-10-07T21:03:13.546Z,24.44
2017-10-07T21:05:40.969Z,24.40
2017-10-07T21:08:08.445Z,24.42
2017-10-07T21:10:35.952Z,24.40
2017-10-07T21:13:03.363Z,24.38
2017-10-07T21:15:30.829Z,24.39
2017-10-07T21:17:58.259Z,24.38
2017-10-07T21:20:26.394Z,24.36
2017-10-07T21:22:54.171Z,24.34
2017-10-07T21:25:21.585Z,24.34
2017-10-07T21:27:49.111Z,24.33
2017-10-07T21:30:16.966Z,24.34
2017-10-07T21:32:44.386Z,24.32
2017-10-07T21:35:11.872Z,24.33
2017-10-07T21:37:39.329Z,24.32
2017-10-07T21:40:06.746Z,24.31
2017-10-07T21:42:34.196Z,24.33
2017-10-07T21:45:01.971Z,24.32
2017-10-07T21:47:29.379Z,24.31
2017-10-07T21:49:56.794Z,24.30
2017-10-07T21:52:24.663Z,24.29
2017-10-07T21:54:52.069Z,24.30
2017-10-07T21:57:19.507Z,24.30
2017-10-07T21:59:47.348Z,24.29
2017-10-07T22:02:14.756Z,24.30
2017-10-07T22:04:42.226Z,24.30
2017-10-07T22:07:09.668Z,24.31
2017-10-07T22:09:37.103Z,24.31
2017-10-07T22:12:05.074Z,24.31
2017-10-07T22:14:32.695Z,24.29
2017-10-07T22:17:02.549Z,24.31
2017-10-07T22:19:30.668Z,24.31
2017-10-07T22:21:58.145Z,24.30
2017-10-07T22:24:25.564Z,24.30
2017-10-07T22:26:52.984Z,24.31
2017-10-07T22:29:20.467Z,24.31
2017-10-07T22:31:47.913Z,24.30
2017-10-07T22:34:15.309Z,24.30
2017-10-07T22:36:43.194Z,24.29
2017-10-07T22:39:10.604Z,24.30
2017-10-07T22:41:38.026Z,24.30
2017-10-07T22:44:05.665Z,24.30
2017-10-07T22:46:33.073Z,24.29
2017-10-07T22:49:00.587Z,24.31
2017-10-07T22:51:28.094Z,24.30
2017-10-07T22:53:55.507Z,24.31
2017-10-07T22:56:22.978Z,24.31
2017-10-07T22:58:50.448Z,24.31
2017-10-07T23:01:17.865Z,24.30
2017-10-07T23:03:45.280Z,24.29
2017-10-07T23:06:12.727Z,24.30
2017-10-07T23:08:40.138Z,24.30
2017-10-07T23:11:07.550Z,24.31
2017-10-07T23:13:35.014Z,24.31
2017-10-07T23:16:02.490Z,24.32
2017-10-07T23:18:29.904Z,24.29
2017-10-07T23:20:57.370Z,24.29
2017-10-07T23:23:24.793Z,24.30
2017-10-07T23:25:52.226Z,24.31
2017-10-07T23:28:19.813Z,24.31
2017-10-07T23:30:48.006Z,24.32
2017-10-07T23:33:15.438Z,24.31
2017-10-07T23:35:43.183Z,24.28
2017-10-07T23:38:10.600Z,24.30
2017-10-07T23:40:38.152Z,24.32
2017-10-07T23:43:05.600Z,24.34
2017-10-07T23:45:33.018Z,24.34
2017-10-07T23:48:00.446Z,24.34
2017-10-07T23:50:27.910Z,24.36
2017-10-07T23:52:55.433Z,24.37
2017-10-07T23:55:22.936Z,24.35
2017-10-07T23:57:50.422Z,24.36
